Time;durP1;ratioP1;P1;durP2;ratioP2;P2;SDS_P1;SDS_P2;PMS_P1;PMS_P2;Temp;Humidity;BMP_temperature;BMP_pressure;BME280_temperature;BME280_humidity;BME280_pressure;Samples;Min_cycle;Max_cycle;Signal;HPM_P1;HPM_P2
2022/08/22 00:01:35;;;;;;;8.27;2.00;;;;;;;20.30;100.00;101594.84;4907814;29;20056;-60
2022/08/22 00:04:21;;;;;;;7.65;1.83;;;;;;;20.27;100.00;101593.38;4897302;29;20751;-61
2022/08/22 00:06:57;;;;;;;12.02;2.50;;;;;;;20.24;100.00;101587.63;4898428;29;20052;-61
2022/08/22 00:09:34;;;;;;;10.23;1.98;;;;;;;20.22;100.00;101587.81;4893762;29;20052;-60
2022/08/22 00:12:20;;;;;;;8.57;2.15;;;;;;;20.20;100.00;101584.50;4904301;29;20059;-61
2022/08/22 00:15:02;;;;;;;8.02;2.10;;;;;;;20.18;100.00;101589.19;4895812;29;20052;-61
2022/08/22 00:17:46;;;;;;;7.40;1.90;;;;;;;20.21;100.00;101593.31;4903088;29;20078;-60
2022/08/22 00:20:25;;;;;;;11.93;2.70;;;;;;;20.15;100.00;101586.94;4898634;29;20410;-60
2022/08/22 00:23:24;;;;;;;7.97;2.40;;;;;;;20.20;100.00;101597.81;4904889;29;20048;-61
2022/08/22 00:26:05;;;;;;;8.65;2.10;;;;;;;20.20;100.00;101594.34;4893711;29;20400;-60
2022/08/22 00:28:55;;;;;;;11.50;2.47;;;;;;;20.17;100.00;101587.56;4909962;29;20064;-60
2022/08/22 00:31:21;;;;;;;9.88;3.60;;;;;;;20.13;100.00;101591.59;4893434;29;20056;-60
2022/08/22 00:34:03;;;;;;;11.32;4.88;;;;;;;20.13;100.00;101595.13;4897828;29;20059;-60
2022/08/22 00:36:55;;;;;;;10.32;2.28;;;;;;;20.13;100.00;101592.44;4905799;29;20056;-60
2022/08/22 00:39:31;;;;;;;9.10;2.17;;;;;;;20.14;100.00;101595.94;4902455;29;20777;-60
2022/08/22 00:42:00;;;;;;;9.40;2.38;;;;;;;20.10;100.00;101592.81;4909030;29;20489;-60
2022/08/22 00:44:49;;;;;;;7.55;2.10;;;;;;;20.08;100.00;101597.50;4895014;29;20057;-61
2022/08/22 00:47:38;;;;;;;9.07;2.33;;;;;;;20.04;100.00;101598.09;4903279;29;20142;-60
2022/08/22 00:50:42;;;;;;;5.07;1.70;;;;;;;20.10;100.00;101595.47;4893614;29;20501;-61
2022/08/22 00:53:38;;;;;;;9.45;2.70;;;;;;;20.07;100.00;101600.34;4909591;29;20056;-60
2022/08/22 00:56:31;;;;;;;12.57;2.15;;;;;;;19.99;100.00;101601.31;4896213;29;20056;-58
2022/08/22 00:59:18;;;;;;;10.35;2.30;;;;;;;19.98;100.00;101599.69;4891610;29;20460;-60
2022/08/22 01:02:27;;;;;;;6.15;2.10;;;;;;;19.99;100.00;101603.97;4888071;29;20731;-60
2022/08/22 01:05:18;;;;;;;11.65;2.40;;;;;;;20.00;100.00;101600.31;4872460;29;20497;-60
2022/08/22 01:08:04;;;;;;;8.10;2.63;;;;;;;19.99;100.00;101600.50;4900601;29;20078;-60
2022/08/22 01:10:49;;;;;;;14.10;4.25;;;;;;;19.95;100.00;101600.88;4896999;29;20052;-60
2022/08/22 01:13:53;;;;;;;8.90;3.42;;;;;;;19.94;100.00;101604.56;4889332;29;20056;-60
2022/08/22 01:16:53;;;;;;;9.30;3.05;;;;;;;19.90;100.00;101608.59;4895920;29;20051;-60
2022/08/22 01:19:59;;;;;;;6.85;2.33;;;;;;;19.91;100.00;101601.44;4903348;29;20120;-60
2022/08/22 01:23:00;;;;;;;12.60;2.75;;;;;;;19.89;100.00;101614.13;4904791;29;20504;-59
2022/08/22 01:25:30;;;;;;;7.00;2.22;;;;;;;19.82;100.00;101611.41;4900066;29;20168;-60
2022/08/22 01:28:21;;;;;;;9.82;2.40;;;;;;;19.82;100.00;101608.72;4895836;29;20146;-60
2022/08/22 01:31:18;;;;;;;10.50;2.55;;;;;;;19.84;100.00;101611.22;4897661;29;20140;-60
2022/08/22 01:34:30;;;;;;;6.05;2.30;;;;;;;19.86;100.00;101606.53;4892481;29;20435;-60
2022/08/22 01:37:19;;;;;;;9.90;2.42;;;;;;;19.85;100.00;101615.50;4907156;29;20040;-60
2022/08/22 01:40:22;;;;;;;11.82;2.75;;;;;;;19.88;100.00;101615.97;4905812;29;20052;-60
2022/08/22 01:43:05;;;;;;;10.90;2.63;;;;;;;19.89;100.00;101614.13;4894446;29;20087;-60
2022/08/22 01:46:06;;;;;;;11.20;3.13;;;;;;;19.91;100.00;101615.56;4896825;29;20088;-60
2022/08/22 01:48:51;;;;;;;8.10;2.42;;;;;;;19.89;100.00;101606.13;4908787;29;20137;-59
2022/08/22 01:51:27;;;;;;;12.25;3.00;;;;;;;19.87;100.00;101610.81;4907477;29;20618;-61
2022/08/22 01:54:27;;;;;;;6.97;2.47;;;;;;;19.84;100.00;101612.03;4904437;29;20052;-61
2022/08/22 01:57:01;;;;;;;6.93;2.65;;;;;;;19.81;100.00;101604.41;4900913;29;20647;-60
2022/08/22 01:59:38;;;;;;;9.25;2.88;;;;;;;19.79;100.00;101611.75;4886393;29;20450;-60
2022/08/22 02:02:40;;;;;;;8.20;2.92;;;;;;;19.79;100.00;101605.63;4905605;29;20502;-61
2022/08/22 02:05:22;;;;;;;9.02;3.53;;;;;;;19.81;100.00;101607.06;4894071;29;20693;-60
2022/08/22 02:07:58;;;;;;;8.38;3.72;;;;;;;19.77;100.00;101603.13;4900822;29;20067;-61
2022/08/22 02:10:45;;;;;;;9.45;3.08;;;;;;;19.78;100.00;101609.28;4900873;29;20048;-61
2022/08/22 02:13:11;;;;;;;10.55;2.90;;;;;;;19.79;100.00;101601.09;4892327;29;20058;-60
2022/08/22 02:15:38;;;;;;;12.60;3.00;;;;;;;19.77;100.00;101597.81;4902923;29;20052;-60
2022/08/22 02:18:05;;;;;;;11.88;3.20;;;;;;;19.76;100.00;101598.84;4903133;29;20426;-60
2022/08/22 02:20:46;;;;;;;7.63;2.85;;;;;;;19.81;100.00;101599.09;4895676;29;20424;-60
2022/08/22 02:23:42;;;;;;;9.82;2.60;;;;;;;19.80;100.00;101599.25;4897245;29;20052;-61
2022/08/22 02:26:16;;;;;;;10.48;3.10;;;;;;;19.80;100.00;101597.44;4889854;29;20044;-61
2022/08/22 02:28:55;;;;;;;13.13;3.40;;;;;;;19.79;100.00;101601.09;4906511;29;20441;-61
2022/08/22 02:31:52;;;;;;;10.07;3.13;;;;;;;19.72;100.00;101590.41;4895822;29;20082;-59
2022/08/22 02:34:42;;;;;;;9.48;2.75;;;;;;;19.75;100.00;101591.84;4892978;29;20145;-60
2022/08/22 02:37:15;;;;;;;8.68;2.70;;;;;;;19.71;100.00;101596.72;4897433;29;20058;-60
2022/08/22 02:39:52;;;;;;;8.77;2.83;;;;;;;19.75;100.00;101591.84;4904949;29;20050;-61
2022/08/22 02:42:36;;;;;;;9.13;2.90;;;;;;;19.77;100.00;101579.19;4900043;29;20059;-60
2022/08/22 02:45:28;;;;;;;8.38;2.55;;;;;;;19.73;100.00;101591.22;4898406;29;20473;-61
2022/08/22 02:48:19;;;;;;;8.63;2.72;;;;;;;19.77;100.00;101586.34;4895319;29;20052;-59
2022/08/22 02:50:56;;;;;;;10.52;2.97;;;;;;;19.79;100.00;101581.66;4897257;29;20055;-60
2022/08/22 02:53:35;;;;;;;6.27;2.63;;;;;;;19.79;100.00;101579.00;4903414;29;20530;-60
2022/08/22 02:56:13;;;;;;;8.20;2.53;;;;;;;19.74;100.00;101577.72;4896966;29;20295;-59
2022/08/22 02:58:53;;;;;;;9.15;2.60;;;;;;;19.77;100.00;101578.38;4906236;29;20134;-60
2022/08/22 03:01:31;;;;;;;9.38;3.00;;;;;;;19.73;100.00;101584.06;4894541;29;20115;-61
2022/08/22 03:04:17;;;;;;;10.10;2.90;;;;;;;19.70;100.00;101580.94;4903736;29;20048;-59
2022/08/22 03:06:58;;;;;;;9.98;2.88;;;;;;;19.64;100.00;101589.66;4903346;29;20052;-59
2022/08/22 03:09:31;;;;;;;8.75;3.15;;;;;;;19.63;100.00;101588.00;4900751;29;20057;-59
2022/08/22 03:12:07;;;;;;;6.80;2.80;;;;;;;19.59;100.00;101578.75;4899594;29;20313;-60
2022/08/22 03:14:46;;;;;;;11.35;3.00;;;;;;;19.56;100.00;101578.13;4900600;29;20409;-60
2022/08/22 03:17:48;;;;;;;10.15;3.08;;;;;;;19.52;100.00;101571.53;4908143;29;20425;-60
2022/08/22 03:20:34;;;;;;;7.30;2.80;;;;;;;19.53;100.00;101570.50;4870304;29;20060;-60
2022/08/22 03:23:19;;;;;;;12.45;3.30;;;;;;;19.52;100.00;101566.19;4911206;29;20090;-61
2022/08/22 03:25:58;;;;;;;8.88;3.40;;;;;;;19.51;100.00;101561.88;4903578;29;20574;-60
2022/08/22 03:28:36;;;;;;;12.02;3.95;;;;;;;19.47;100.00;101565.94;4893854;29;20056;-60
2022/08/22 03:31:13;;;;;;;13.35;3.05;;;;;;;19.52;100.00;101560.03;4901607;29;20048;-60
2022/08/22 03:33:40;;;;;;;10.53;3.37;;;;;;;19.47;100.00;101565.94;4909485;29;20067;-60
2022/08/22 03:36:12;;;;;;;8.80;3.05;;;;;;;19.48;100.00;101564.09;4902950;29;20052;-60
2022/08/22 03:39:10;;;;;;;11.65;3.33;;;;;;;19.47;100.00;101565.94;4904017;29;20048;-58
2022/08/22 03:41:56;;;;;;;10.02;3.30;;;;;;;19.44;100.00;101568.13;4888698;29;20520;-60
2022/08/22 03:44:49;;;;;;;8.82;3.45;;;;;;;19.48;100.00;101558.75;4904225;29;20056;-60
2022/08/22 03:47:47;;;;;;;13.60;3.95;;;;;;;19.45;100.00;101554.66;4892919;29;20523;-61
2022/08/22 03:50:25;;;;;;;13.05;3.83;;;;;;;19.43;100.00;101559.34;4902034;29;20062;-60
2022/08/22 03:53:07;;;;;;;10.18;3.63;;;;;;;19.42;100.00;101552.34;4890786;29;20053;-60
2022/08/22 03:55:44;;;;;;;12.80;3.88;;;;;;;19.35;100.00;101549.63;4901119;29;20048;-60
2022/08/22 03:58:35;;;;;;;11.07;3.30;;;;;;;19.41;100.00;101550.72;4901410;29;20421;-60
2022/08/22 04:01:18;;;;;;;12.00;3.35;;;;;;;19.41;100.00;101556.03;4903648;29;20062;-60
2022/08/22 04:04:19;;;;;;;11.15;3.63;;;;;;;19.40;100.00;101561.53;4904590;29;20466;-58
2022/08/22 04:07:18;;;;;;;9.38;3.63;;;;;;;19.38;100.00;101555.59;4898106;29;20509;-60
2022/08/22 04:10:28;;;;;;;10.77;3.50;;;;;;;19.34;100.00;101553.28;4895064;29;20726;-59
2022/08/22 04:13:08;;;;;;;11.00;3.83;;;;;;;19.32;100.00;101554.50;4903681;29;20055;-60
2022/08/22 04:15:45;;;;;;;12.13;3.42;;;;;;;19.34;100.00;101557.78;4902767;29;20063;-60
2022/08/22 04:18:48;;;;;;;12.98;3.70;;;;;;;19.35;100.00;101565.59;4907815;29;20143;-60
2022/08/22 04:21:27;;;;;;;9.55;3.78;;;;;;;19.34;100.00;101563.94;4893014;29;20553;-60
2022/08/22 04:23:54;;;;;;;9.40;3.67;;;;;;;19.29;100.00;101565.53;4904540;29;20056;-60
2022/08/22 04:26:51;;;;;;;9.23;3.63;;;;;;;19.31;100.00;101572.28;4906885;29;20062;-61
2022/08/22 04:29:27;;;;;;;12.60;3.70;;;;;;;19.32;100.00;101570.44;4904686;29;20052;-61
2022/08/22 04:32:16;;;;;;;12.43;3.38;;;;;;;19.31;100.00;101574.13;4904127;29;20060;-61
2022/08/22 04:34:54;;;;;;;15.90;4.13;;;;;;;19.29;100.00;101574.31;4905297;29;20169;-60
2022/08/22 04:37:34;;;;;;;8.32;3.20;;;;;;;19.31;100.00;101577.63;4898912;29;20059;-61
2022/08/22 04:40:23;;;;;;;12.45;3.75;;;;;;;19.32;100.00;101581.09;4898112;29;20060;-60
2022/08/22 04:43:07;;;;;;;11.60;3.65;;;;;;;19.30;100.00;101575.94;4910853;29;20052;-60
2022/08/22 04:45:40;;;;;;;13.88;3.45;;;;;;;19.28;100.00;101585.13;4900340;29;20052;-62
2022/08/22 04:48:36;;;;;;;11.57;3.58;;;;;;;19.28;100.00;101577.97;4899227;29;20056;-61
2022/08/22 04:51:14;;;;;;;11.68;3.83;;;;;;;19.27;100.00;101575.53;4895979;29;20540;-61
2022/08/22 04:54:11;;;;;;;12.05;3.63;;;;;;;19.26;100.00;101577.34;4906619;29;20402;-60
2022/08/22 04:56:53;;;;;;;13.80;4.07;;;;;;;19.25;100.00;101588.16;4900072;29;20067;-60
2022/08/22 04:59:23;;;;;;;15.98;3.88;;;;;;;19.25;100.00;101582.81;4900848;29;20080;-60
2022/08/22 05:01:55;;;;;;;8.48;2.83;;;;;;;19.25;100.00;101580.16;4893648;29;20056;-61
2022/08/22 05:04:31;;;;;;;13.02;3.90;;;;;;;19.27;100.00;101572.88;4895120;29;20429;-60
2022/08/22 05:07:21;;;;;;;11.30;3.70;;;;;;;19.30;100.00;101575.94;4891389;29;20509;-60
2022/08/22 05:09:55;;;;;;;13.02;4.47;;;;;;;19.30;100.00;101577.78;4896427;29;20051;-60
2022/08/22 05:12:31;;;;;;;7.75;3.50;;;;;;;19.32;100.00;101570.44;4901691;29;20062;-60
2022/08/22 05:15:15;;;;;;;9.80;3.58;;;;;;;19.36;100.00;101574.38;4897683;29;20062;-60
2022/08/22 05:17:51;;;;;;;10.77;3.63;;;;;;;19.35;100.00;101576.22;4903930;29;20086;-60
2022/08/22 05:20:22;;;;;;;9.45;3.78;;;;;;;19.37;100.00;101576.03;4905927;29;20421;-60
2022/08/22 05:22:57;;;;;;;12.52;3.53;;;;;;;19.35;100.00;101578.88;4908701;29;20056;-59
2022/08/22 05:25:28;;;;;;;19.35;3.90;;;;;;;19.36;100.00;101587.69;4894060;29;20406;-59
2022/08/22 05:28:27;;;;;;;13.82;3.97;;;;;;;19.35;100.00;101583.41;4905777;29;20048;-60
2022/08/22 05:30:55;;;;;;;13.52;4.20;;;;;;;19.32;100.00;101579.25;4890681;29;20056;-60
2022/08/22 05:33:41;;;;;;;14.50;3.95;;;;;;;19.35;100.00;101578.06;4905094;29;20429;-61
2022/08/22 05:36:13;;;;;;;10.85;3.72;;;;;;;19.31;100.00;101580.28;4897983;29;20533;-61
2022/08/22 05:38:46;;;;;;;15.63;4.05;;;;;;;19.32;100.00;101589.06;4901883;29;20059;-60
2022/08/22 05:41:22;;;;;;;10.98;3.75;;;;;;;19.32;100.00;101584.56;4898571;29;20063;-61
2022/08/22 05:43:51;;;;;;;12.55;3.83;;;;;;;19.36;100.00;101585.84;4898385;29;20081;-60
2022/08/22 05:46:42;;;;;;;13.93;4.57;;;;;;;19.38;100.00;101588.31;4902884;29;20063;-60
2022/08/22 05:49:31;;;;;;;10.73;3.88;;;;;;;19.39;100.00;101590.00;4902383;29;20050;-59
2022/08/22 05:52:31;;;;;;;12.50;4.30;;;;;;;19.45;100.00;101594.56;4904387;29;20568;-61
2022/08/22 05:55:09;;;;;;;13.65;4.10;;;;;;;19.43;100.00;101601.91;4898001;29;20076;-59
2022/08/22 05:57:40;;;;;;;9.77;3.90;;;;;;;19.43;100.00;101612.53;4904165;29;20048;-58
2022/08/22 06:00:15;;;;;;;15.60;4.20;;;;;;;19.45;100.00;101607.03;4903524;29;20297;-61
2022/08/22 06:03:29;;;;;;;10.88;3.70;;;;;;;19.46;100.00;101609.50;4907518;29;20384;-60
2022/08/22 06:06:01;;;;;;;12.73;3.83;;;;;;;19.52;100.00;101615.91;4903783;29;20062;-60
2022/08/22 06:08:38;;;;;;;9.15;4.07;;;;;;;19.55;100.00;101608.38;4901949;29;20062;-62
2022/08/22 06:11:14;;;;;;;12.75;4.38;;;;;;;19.58;100.00;101611.69;4892045;29;20494;-60
2022/08/22 06:13:50;;;;;;;11.93;4.03;;;;;;;19.63;100.00;101609.31;4908437;29;20062;-60
2022/08/22 06:16:21;;;;;;;10.25;4.00;;;;;;;19.65;100.00;101610.75;4897048;29;20059;-60
2022/08/22 06:18:50;;;;;;;10.95;4.40;;;;;;;19.73;100.00;101610.66;4898622;29;20052;-61
2022/08/22 06:21:27;;;;;;;12.57;3.75;;;;;;;19.78;100.00;101607.47;4894545;29;20071;-59
2022/08/22 06:24:02;;;;;;;16.60;4.35;;;;;;;19.85;100.00;101612.84;4911106;29;20056;-60
2022/08/22 06:26:36;;;;;;;12.50;4.30;;;;;;;19.90;100.00;101619.25;4903570;29;20064;-60
2022/08/22 06:29:06;;;;;;;16.10;4.53;;;;;;;19.95;100.00;101608.88;4908229;29;20050;-61
2022/08/22 06:31:43;;;;;;;14.45;4.28;;;;;;;20.02;100.00;101616.09;4908605;29;20055;-60
2022/08/22 06:34:32;;;;;;;16.27;3.88;;;;;;;20.07;100.00;101622.50;4896461;29;20088;-60
2022/08/22 06:37:04;;;;;;;16.05;4.13;;;;;;;20.12;100.00;101624.59;4893556;29;20082;-60
2022/08/22 06:39:37;;;;;;;16.35;4.82;;;;;;;20.17;100.00;101627.53;4903989;29;20056;-61
2022/08/22 06:42:12;;;;;;;11.45;3.80;;;;;;;20.24;100.00;101622.25;4912234;29;20477;-61
2022/08/22 06:44:47;;;;;;;;;;;;;;;20.32;100.00;101630.09;4903259;29;20135;-59
2022/08/22 06:47:21;;;;;;;12.35;4.32;;;;;;;20.34;100.00;101630.72;4906353;29;20410;-61
2022/08/22 06:49:55;;;;;;;17.73;4.28;;;;;;;20.39;100.00;101631.00;4899273;29;20067;-61
2022/08/22 06:52:24;;;;;;;12.15;4.00;;;;;;;20.44;100.00;101633.91;4902066;29;20056;-61
2022/08/22 06:54:59;;;;;;;11.13;4.13;;;;;;;20.52;100.00;101635.59;4904481;29;20513;-61
2022/08/22 06:57:57;;;;;;;11.73;4.32;;;;;;;20.53;100.00;101637.25;4903324;29;20418;-61
2022/08/22 07:00:25;;;;;;;12.98;4.05;;;;;;;20.61;100.00;101639.81;4896755;29;20054;-60
2022/08/22 07:02:57;;;;;;;8.48;3.75;;;;;;;20.65;100.00;101634.94;4901349;29;20564;-61
2022/08/22 07:05:33;;;;;;;13.93;4.07;;;;;;;20.70;100.00;101633.34;4905256;29;20070;-61
2022/08/22 07:08:07;;;;;;;9.45;3.80;;;;;;;20.77;100.00;101636.03;4888680;29;20430;-61
2022/08/22 07:10:33;;;;;;;10.52;3.50;;;;;;;20.82;100.00;101635.47;4906393;29;20052;-60
2022/08/22 07:13:02;;;;;;;14.65;4.25;;;;;;;20.86;100.00;101629.53;4903671;29;20044;-60
2022/08/22 07:15:33;;;;;;;11.50;4.30;;;;;;;20.92;100.00;101642.09;4911425;29;20056;-61
2022/08/22 07:18:15;;;;;;;14.63;4.13;;;;;;;21.03;100.00;101637.22;4895239;29;20424;-62
2022/08/22 07:20:48;;;;;;;16.63;4.35;;;;;;;21.09;100.00;101642.63;4903388;29;20059;-61
2022/08/22 07:23:44;;;;;;;8.63;3.42;;;;;;;21.18;100.00;101645.13;4898748;29;20056;-61
2022/08/22 07:26:29;;;;;;;13.50;3.95;;;;;;;21.18;100.00;101640.59;4898496;29;20112;-61
2022/08/22 07:29:11;;;;;;;9.30;3.75;;;;;;;21.24;100.00;101645.16;4898400;29;20052;-61
2022/08/22 07:31:53;;;;;;;14.00;4.40;;;;;;;21.27;100.00;101646.63;4895094;29;20084;-60
2022/08/22 07:34:38;;;;;;;11.55;4.20;;;;;;;21.28;100.00;101650.91;4903372;29;20162;-61
2022/08/22 07:37:20;;;;;;;13.25;4.13;;;;;;;21.33;100.00;101646.63;4898284;29;20493;-61
2022/08/22 07:39:53;;;;;;;11.30;3.70;;;;;;;21.40;100.00;101654.66;4908988;29;20048;-61
2022/08/22 07:42:27;;;;;;;8.63;3.47;;;;;;;21.48;100.00;101645.69;4899345;29;20550;-61
2022/08/22 07:45:05;;;;;;;10.38;4.00;;;;;;;21.54;100.00;101644.91;4907952;29;20048;-61
2022/08/22 07:48:10;;;;;;;11.73;4.32;;;;;;;21.63;100.00;101642.91;4901419;29;20044;-61
2022/08/22 07:50:46;;;;;;;15.43;4.18;;;;;;;21.67;100.00;101639.63;4874242;29;20060;-59
2022/08/22 07:53:33;;;;;;;12.73;3.50;;;;;;;21.81;100.00;101642.34;4904616;29;20060;-61
2022/08/22 07:56:03;;;;;;;10.80;3.50;;;;;;;21.89;100.00;101634.97;4897132;29;20536;-61
2022/08/22 07:58:33;;;;;;;10.48;3.50;;;;;;;21.98;100.00;101637.47;4896194;29;20584;-61
2022/08/22 08:01:00;;;;;;;11.07;3.85;;;;;;;21.98;100.00;101629.44;4896810;29;20083;-60
2022/08/22 08:03:29;;;;;;;9.50;3.40;;;;;;;22.09;100.00;101627.00;4909371;29;20413;-61
2022/08/22 08:05:58;;;;;;;8.27;3.40;;;;;;;22.16;100.00;101636.88;4905110;29;20052;-61
2022/08/22 08:08:41;;;;;;;11.32;3.90;;;;;;;22.25;99.64;101616.97;4905009;29;20487;-62
2022/08/22 08:11:10;;;;;;;11.25;3.90;;;;;;;22.28;99.44;101620.03;4890764;29;20260;-61
2022/08/22 08:13:42;;;;;;;10.88;3.60;;;;;;;22.29;99.37;101619.03;4893122;29;20537;-61
2022/08/22 08:16:16;;;;;;;10.27;4.45;;;;;;;22.36;98.71;101621.69;4898932;29;20052;-60
2022/08/22 08:18:47;;;;;;;10.10;3.60;;;;;;;22.38;96.59;101613.47;4908546;29;20109;-60
2022/08/22 08:21:36;;;;;;;11.90;3.65;;;;;;;22.47;96.59;101618.41;4899983;29;20052;-61
2022/08/22 08:24:06;;;;;;;11.73;3.40;;;;;;;22.55;96.09;101604.00;4908993;29;20052;-61
2022/08/22 08:28:32;;;;;;;11.90;3.88;;;;;;;22.60;94.47;101598.03;4900758;29;20505;-62
2022/08/22 08:29:27;;;;;;;11.93;3.83;;;;;;;22.64;95.12;101607.28;4902888;29;20059;-61
2022/08/22 08:31:54;;;;;;;9.73;3.67;;;;;;;22.69;96.38;101594.13;4900820;29;20045;-59
2022/08/22 08:34:24;;;;;;;10.40;3.67;;;;;;;22.83;94.73;101606.44;4892016;29;20067;-60
2022/08/22 08:36:56;;;;;;;10.05;3.80;;;;;;;22.88;90.67;101592.44;4900160;29;20064;-61
2022/08/22 08:39:30;;;;;;;12.07;4.22;;;;;;;23.01;91.11;101589.75;4891967;29;20266;-60
2022/08/22 08:42:30;;;;;;;10.52;3.55;;;;;;;23.09;91.19;101591.38;4894915;29;20095;-61
2022/08/22 08:45:45;;;;;;;10.38;3.85;;;;;;;23.09;89.23;101584.19;4903829;29;20060;-61
2022/08/22 08:48:33;;;;;;;11.25;4.05;;;;;;;23.08;89.99;101590.56;4865696;29;20501;-61
2022/08/22 08:51:21;;;;;;;15.82;5.35;;;;;;;23.14;90.50;101590.75;4896292;29;20485;-61
2022/08/22 08:54:25;;;;;;;14.63;3.95;;;;;;;23.20;90.24;101592.59;4894149;29;20052;-62
2022/08/22 08:57:02;;;;;;;16.17;4.35;;;;;;;23.27;90.11;101588.03;4892028;29;20080;-61
2022/08/22 08:59:48;;;;;;;10.85;4.53;;;;;;;23.24;89.93;101597.28;4905084;29;20052;-61
2022/08/22 09:02:32;;;;;;;10.30;4.05;;;;;;;23.27;92.06;101586.19;4901263;29;20515;-61
2022/08/22 09:05:34;;;;;;;13.43;4.13;;;;;;;23.40;91.49;101587.97;4908873;29;20559;-61
2022/08/22 09:08:23;;;;;;;9.73;4.00;;;;;;;23.72;91.00;101585.34;4893163;29;20062;-61
2022/08/22 09:11:08;;;;;;;10.57;3.97;;;;;;;23.95;87.40;101584.78;4904502;29;20107;-61
2022/08/22 09:13:44;;;;;;;14.35;4.22;;;;;;;24.36;86.96;101579.94;4892061;29;20052;-60
2022/08/22 09:16:51;;;;;;;12.27;4.80;;;;;;;24.81;83.99;101579.75;4905404;29;20052;-61
2022/08/22 09:19:17;;;;;;;14.45;4.75;;;;;;;25.25;82.64;101583.19;4897487;29;20699;-61
2022/08/22 09:22:12;;;;;;;10.43;4.65;;;;;;;25.53;77.69;101579.91;4891183;29;20831;-61
2022/08/22 09:25:10;;;;;;;10.57;4.35;;;;;;;25.68;76.17;101581.38;4889475;29;20532;-61
2022/08/22 09:27:48;;;;;;;11.52;4.30;;;;;;;25.75;77.07;101580.22;4906978;29;20048;-61
2022/08/22 09:30:18;;;;;;;8.95;4.25;;;;;;;25.95;76.21;101582.66;4896916;29;20048;-61
2022/08/22 09:33:16;;;;;;;13.25;4.32;;;;;;;26.06;75.01;101583.72;4905262;29;20052;-61
2022/08/22 09:35:58;;;;;;;11.00;4.03;;;;;;;25.98;74.63;101576.81;4893419;29;20055;-62
2022/08/22 09:38:54;;;;;;;9.82;4.07;;;;;;;25.97;74.70;101582.41;4902462;29;20151;-62
2022/08/22 09:41:35;;;;;;;11.70;3.80;;;;;;;25.85;73.66;101580.50;4890490;29;20044;-61
2022/08/22 09:44:07;;;;;;;11.95;3.97;;;;;;;25.87;72.77;101582.94;4903931;29;20052;-62
2022/08/22 09:47:01;;;;;;;12.80;3.55;;;;;;;25.95;71.16;101573.75;4905690;29;20155;-60
2022/08/22 09:49:47;;;;;;;10.32;3.63;;;;;;;25.91;72.19;101570.72;4905011;29;20119;-61
2022/08/22 09:52:41;;;;;;;14.18;3.88;;;;;;;25.98;71.46;101568.75;4901116;29;20056;-62
2022/08/22 09:55:21;;;;;;;9.32;3.65;;;;;;;26.08;71.42;101559.31;4902536;29;20079;-61
2022/08/22 09:58:09;;;;;;;10.05;3.15;;;;;;;26.23;70.77;101568.53;4900514;29;20049;-62
2022/08/22 10:00:45;;;;;;;10.57;4.20;;;;;;;26.31;70.66;101572.75;4905948;29;20485;-62
2022/08/22 10:03:29;;;;;;;11.00;3.00;;;;;;;26.42;68.92;101563.88;4898689;29;20498;-62
2022/08/22 10:06:10;;;;;;;9.38;2.83;;;;;;;26.47;69.17;101563.16;4897487;29;20055;-61
2022/08/22 10:08:42;;;;;;;9.82;3.03;;;;;;;26.55;66.87;101567.38;4906675;29;20088;-61
2022/08/22 10:11:21;;;;;;;6.07;2.38;;;;;;;26.70;67.55;101559.69;4900848;29;20056;-61
2022/08/22 10:13:58;;;;;;;7.45;3.33;;;;;;;26.84;67.19;101549.47;4908581;29;20056;-61
2022/08/22 10:16:42;;;;;;;8.88;3.08;;;;;;;26.94;63.54;101560.44;4894213;29;20185;-61
2022/08/22 10:19:27;;;;;;;9.85;2.70;;;;;;;27.10;64.79;101549.97;4896709;29;20060;-61
2022/08/22 10:22:14;;;;;;;7.80;2.45;;;;;;;27.20;64.90;101550.16;4904089;29;20055;-62
2022/08/22 10:24:55;;;;;;;8.55;2.33;;;;;;;27.34;63.29;101548.84;4910647;29;20052;-62
2022/08/22 10:27:34;;;;;;;9.88;2.80;;;;;;;27.55;61.28;101549.22;4906355;29;20062;-62
2022/08/22 10:30:08;;;;;;;7.28;2.88;;;;;;;27.72;61.68;101542.00;4899241;29;20257;-62
2022/08/22 10:33:09;;;;;;;7.78;2.60;;;;;;;27.80;61.08;101538.06;4888097;29;20064;-62
2022/08/22 10:35:49;;;;;;;8.50;2.63;;;;;;;27.78;60.34;101532.91;4903192;29;20058;-61
2022/08/22 10:38:40;;;;;;;9.88;2.58;;;;;;;27.79;57.53;101536.44;4908233;29;20051;-62
2022/08/22 10:41:41;;;;;;;10.50;2.80;;;;;;;27.77;57.34;101533.97;4910839;29;20052;-61
2022/08/22 10:44:29;;;;;;;10.80;2.83;;;;;;;27.69;59.48;101534.38;4898868;29;20058;-62
2022/08/22 10:47:06;;;;;;;6.53;2.42;;;;;;;27.67;59.11;101530.31;4909233;29;20055;-62
2022/08/22 10:49:45;;;;;;;8.00;2.50;;;;;;;27.61;58.98;101529.41;4904068;29;20048;-61
2022/08/22 10:52:25;;;;;;;7.63;2.70;;;;;;;27.59;58.99;101531.50;4898993;29;20057;-61
2022/08/22 10:55:00;;;;;;;7.82;2.53;;;;;;;27.53;60.18;101529.81;4904438;29;20139;-62
2022/08/22 10:58:12;;;;;;;6.75;2.75;;;;;;;27.57;59.91;101529.06;4897483;29;20059;-62
2022/08/22 11:00:57;;;;;;;7.45;2.65;;;;;;;27.54;59.32;101528.72;4900020;29;20383;-63
2022/08/22 11:03:34;;;;;;;6.57;2.45;;;;;;;27.53;60.63;101530.59;4901088;29;20054;-61
2022/08/22 11:06:11;;;;;;;8.27;2.60;;;;;;;27.70;58.14;101525.25;4901485;29;20064;-62
2022/08/22 11:08:58;;;;;;;8.85;2.90;;;;;;;27.86;59.41;101517.41;4903706;29;20115;-62
2022/08/22 11:11:46;;;;;;;10.52;2.83;;;;;;;28.04;58.39;101516.38;4901929;29;20053;-61
2022/08/22 11:14:23;;;;;;;9.10;3.22;;;;;;;28.13;57.14;101512.19;4891218;29;20052;-61
2022/08/22 11:17:15;;;;;;;7.45;2.60;;;;;;;28.38;58.55;101507.16;4906026;29;20045;-62
2022/08/22 11:20:36;;;;;;;10.30;2.83;;;;;;;28.55;58.48;101504.44;4899575;29;20059;-62
2022/08/22 11:23:36;;;;;;;9.32;2.50;;;;;;;28.77;57.64;101499.03;4867872;29;20131;-62
2022/08/22 11:26:32;;;;;;;6.40;2.00;;;;;;;28.94;58.03;101504.34;4854254;29;20087;-62
2022/08/22 11:29:51;;;;;;;10.68;3.47;;;;;;;28.79;54.63;101496.91;4906744;29;20057;-62
2022/08/22 11:33:02;;;;;;;7.22;2.95;;;;;;;28.86;55.62;101504.00;4843649;29;20659;-62
2022/08/22 11:35:42;;;;;;;7.45;2.50;;;;;;;29.21;54.87;101508.16;4840343;29;20060;-62
2022/08/22 11:38:35;;;;;;;7.00;2.53;;;;;;;29.72;57.45;101500.56;4849505;29;20053;-62
2022/08/22 11:41:24;;;;;;;5.68;2.25;;;;;;;30.00;51.38;101501.31;4829878;29;20129;-62
2022/08/22 11:44:02;;;;;;;9.38;2.67;;;;;;;29.91;49.18;101503.66;4843448;29;20086;-62
2022/08/22 11:46:37;;;;;;;7.30;3.05;;;;;;;29.82;49.62;101502.53;4841876;29;20082;-62
2022/08/22 11:49:21;;;;;;;8.60;2.75;;;;;;;30.10;50.88;101498.66;4838473;29;20057;-61
2022/08/22 11:51:59;;;;;;;9.40;2.85;;;;;;;30.30;50.83;101492.53;4842578;29;20046;-62
2022/08/22 11:54:40;;;;;;;7.63;2.95;;;;;;;30.48;51.23;101494.00;4839943;29;20054;-62
2022/08/22 11:57:18;;;;;;;10.00;2.65;;;;;;;30.52;52.57;101500.50;4848890;29;20053;-60
2022/08/22 11:59:45;;;;;;;9.47;2.93;;;;;;;30.60;47.89;101486.50;4845709;29;20053;-60
2022/08/22 12:02:22;;;;;;;8.40;2.58;;;;;;;31.01;48.49;101483.94;4838975;29;20602;-60
2022/08/22 12:04:56;;;;;;;6.85;2.50;;;;;;;31.10;47.70;101486.91;4835226;29;20053;-60
2022/08/22 12:07:28;;;;;;;8.30;2.58;;;;;;;31.24;47.80;101482.59;4896860;29;20519;-60
2022/08/22 12:10:15;;;;;;;8.73;2.50;;;;;;;31.11;47.86;101480.44;4899497;29;20656;-60
2022/08/22 12:13:07;;;;;;;9.75;2.53;;;;;;;31.06;48.92;101481.22;4909852;29;20076;-62
2022/08/22 12:15:48;;;;;;;6.95;2.30;;;;;;;31.02;47.70;101482.03;4897761;29;20215;-62
2022/08/22 12:18:43;;;;;;;6.57;2.17;;;;;;;30.89;47.07;101475.22;4909548;29;20511;-62
2022/08/22 12:21:22;;;;;;;10.88;2.72;;;;;;;30.69;48.24;101473.25;4896389;29;20130;-62
2022/08/22 12:24:20;;;;;;;6.43;2.40;;;;;;;30.68;48.83;101472.44;4907476;29;20474;-61
2022/08/22 12:27:10;;;;;;;7.60;2.30;;;;;;;30.63;47.88;101483.25;4899398;29;20473;-61
2022/08/22 12:30:03;;;;;;;7.47;2.00;;;;;;;30.53;46.62;101473.19;4909554;29;20052;-61